Time;durP1;ratioP1;P1;durP2;ratioP2;P2;SDS_P1;SDS_P2;PMS_P1;PMS_P2;Temp;Humidity;BMP_temperature;BMP_pressure;BME280_temperature;BME280_humidity;BME280_pressure;Samples;Min_cycle;Max_cycle;Signal;HPM_P1;HPM_P2
2021/09/19 00:01:16;;;;;;;6.82;4.80;;;13.60;99.90;;;;;;5097926;28;20369;-83
2021/09/19 00:03:42;;;;;;;7.25;4.35;;;13.50;99.90;;;;;;5102685;28;20841;-81
2021/09/19 00:06:07;;;;;;;8.97;4.90;;;13.50;99.90;;;;;;5100754;28;20374;-82
2021/09/19 00:08:34;;;;;;;7.05;4.57;;;13.60;99.90;;;;;;5100073;28;20886;-82
2021/09/19 00:11:00;;;;;;;8.57;4.38;;;13.50;99.90;;;;;;5097034;28;20881;-80
2021/09/19 00:13:26;;;;;;;4.85;4.35;;;13.60;99.90;;;;;;5111856;28;20387;-83
2021/09/19 00:15:52;;;;;;;7.57;4.60;;;13.60;99.90;;;;;;5093576;28;20748;-84
2021/09/19 00:18:17;;;;;;;6.20;4.80;;;13.60;99.90;;;;;;5110439;28;20383;-84
2021/09/19 00:20:47;;;;;;;6.47;5.07;;;13.50;99.90;;;;;;5093257;28;20425;-81
2021/09/19 00:23:13;;;;;;;7.45;4.65;;;13.50;99.90;;;;;;5090812;28;20385;-81
2021/09/19 00:25:39;;;;;;;6.40;4.72;;;13.60;99.90;;;;;;5098496;28;20427;-84
2021/09/19 00:28:06;;;;;;;5.55;4.07;;;13.70;99.90;;;;;;5098465;28;20790;-86
2021/09/19 00:30:32;;;;;;;6.60;4.82;;;13.70;99.90;;;;;;5098946;28;20447;-80
2021/09/19 00:32:59;;;;;;;6.07;5.10;;;13.70;99.90;;;;;;5100613;28;20915;-80
2021/09/19 00:35:25;;;;;;;7.63;4.93;;;13.60;99.90;;;;;;5098024;28;20371;-79
2021/09/19 00:37:51;;;;;;;6.80;4.70;;;13.60;99.90;;;;;;5097685;28;20717;-84
2021/09/19 00:40:17;;;;;;;5.38;4.40;;;13.60;99.90;;;;;;5100233;27;20365;-81
2021/09/19 00:42:43;;;;;;;5.43;4.60;;;13.60;99.90;;;;;;5101034;28;20481;-82
2021/09/19 00:45:13;;;;;;;6.87;4.97;;;13.60;99.90;;;;;;5100616;28;20953;-82
2021/09/19 00:47:39;;;;;;;6.07;4.47;;;13.60;99.90;;;;;;5099018;28;20413;-84
2021/09/19 00:50:09;;;;;;;5.18;4.68;;;13.50;99.90;;;;;;5100467;28;20880;-79
2021/09/19 00:52:37;;;;;;;5.70;4.63;;;13.50;99.90;;;;;;5094609;28;21410;-82
2021/09/19 00:55:03;;;;;;;5.88;4.90;;;13.50;99.90;;;;;;5097523;28;20407;-82
2021/09/19 00:57:29;;;;;;;8.80;5.07;;;13.40;99.90;;;;;;5099157;28;20459;-81
2021/09/19 00:59:55;;;;;;;7.40;4.90;;;13.40;99.90;;;;;;5096622;28;20913;-80
2021/09/19 01:02:21;;;;;;;8.23;5.00;;;13.40;99.90;;;;;;5098970;28;20880;-81
2021/09/19 01:04:47;;;;;;;6.82;5.22;;;13.50;99.90;;;;;;5098327;28;20395;-83
2021/09/19 01:07:16;;;;;;;7.25;4.50;;;13.50;99.90;;;;;;5100058;28;20383;-83
2021/09/19 01:09:42;;;;;;;6.07;5.27;;;13.40;99.90;;;;;;5099907;28;20368;-84
2021/09/19 01:12:10;;;;;;;6.30;4.97;;;13.50;99.90;;;;;;5089209;28;20377;-82
2021/09/19 01:14:38;;;;;;;6.45;5.03;;;13.50;99.90;;;;;;5088481;28;20447;-81
2021/09/19 01:17:05;;;;;;;7.28;4.90;;;13.50;99.90;;;;;;5089787;28;20396;-79
2021/09/19 01:19:34;;;;;;;5.53;4.80;;;13.40;99.90;;;;;;5089865;28;20380;-83
2021/09/19 01:22:00;;;;;;;8.15;5.28;;;13.50;99.90;;;;;;5088304;28;20862;-82
2021/09/19 01:24:27;;;;;;;5.82;4.72;;;13.30;99.90;;;;;;5089702;28;20407;-80
2021/09/19 01:26:53;;;;;;;6.60;4.93;;;13.40;99.90;;;;;;5090133;28;20383;-83
2021/09/19 01:29:19;;;;;;;6.63;5.10;;;13.40;99.90;;;;;;5089726;28;20376;-82
2021/09/19 01:31:45;;;;;;;7.30;5.10;;;13.50;99.90;;;;;;5089541;28;20413;-82
2021/09/19 01:34:10;;;;;;;7.43;5.28;;;13.50;99.90;;;;;;5089478;28;20898;-82
2021/09/19 01:36:36;;;;;;;5.43;4.70;;;13.50;99.90;;;;;;5089601;28;20404;-84
2021/09/19 01:39:05;;;;;;;7.13;4.85;;;13.40;99.90;;;;;;5089416;28;20371;-81
2021/09/19 01:41:31;;;;;;;6.25;4.85;;;13.40;99.90;;;;;;5071417;28;20431;-80
2021/09/19 01:43:56;;;;;;;6.07;5.00;;;13.40;99.90;;;;;;5089325;28;20870;-83
2021/09/19 01:46:22;;;;;;;6.53;4.77;;;13.40;99.90;;;;;;5089257;28;20384;-80
2021/09/19 01:48:48;;;;;;;7.03;5.30;;;13.40;99.90;;;;;;5087885;28;20898;-79
2021/09/19 01:51:14;;;;;;;5.43;4.80;;;13.40;99.90;;;;;;5089192;28;20365;-81
2021/09/19 01:53:40;;;;;;;7.22;5.25;;;13.30;99.90;;;;;;5089862;28;20433;-84
2021/09/19 01:56:07;;;;;;;8.40;5.07;;;13.30;99.90;;;;;;5089321;28;20369;-85
2021/09/19 01:58:44;;;;;;;8.30;5.03;;;13.40;99.90;;;;;;5087975;28;20376;-83
2021/09/19 02:01:11;;;;;;;8.40;5.27;;;13.40;99.90;;;;;;5089376;28;20384;-82
2021/09/19 02:03:37;;;;;;;7.93;5.40;;;13.40;99.90;;;;;;5089415;28;20377;-84
2021/09/19 02:06:03;;;;;;;6.72;5.45;;;13.40;99.90;;;;;;5087747;28;20414;-82
2021/09/19 02:08:29;;;;;;;5.45;4.95;;;13.30;99.90;;;;;;5089031;28;20735;-81
2021/09/19 02:10:55;;;;;;;6.18;5.03;;;13.30;99.90;;;;;;5089041;28;20388;-84
2021/09/19 02:13:20;;;;;;;6.22;5.03;;;13.40;99.90;;;;;;5088922;28;20445;-83
2021/09/19 02:15:46;;;;;;;5.67;5.03;;;13.50;99.90;;;;;;5087349;28;20862;-82
2021/09/19 02:18:11;;;;;;;6.32;5.00;;;13.40;99.90;;;;;;5089025;28;20396;-81
2021/09/19 02:20:37;;;;;;;5.77;5.17;;;13.30;99.90;;;;;;5088857;28;20730;-82
2021/09/19 02:23:03;;;;;;;6.38;4.95;;;13.30;99.90;;;;;;5089059;28;20754;-81
2021/09/19 02:25:28;;;;;;;8.20;5.43;;;13.30;99.90;;;;;;5087288;28;20376;-80
2021/09/19 02:27:54;;;;;;;6.97;5.30;;;13.30;99.90;;;;;;5088892;28;20754;-83
2021/09/19 02:30:19;;;;;;;6.70;5.27;;;13.20;99.90;;;;;;5088832;28;21516;-84
2021/09/19 02:32:45;;;;;;;6.97;5.30;;;13.20;99.90;;;;;;5088872;28;20375;-81
2021/09/19 02:35:11;;;;;;;7.03;5.05;;;13.10;99.90;;;;;;5088866;28;20455;-83
2021/09/19 02:37:38;;;;;;;8.18;5.50;;;13.10;99.90;;;;;;5088599;28;21240;-81
2021/09/19 02:40:05;;;;;;;7.27;5.87;;;13.10;99.90;;;;;;5089140;28;20384;-85
2021/09/19 02:42:31;;;;;;;6.78;4.90;;;13.10;99.90;;;;;;5087284;28;20377;-84
2021/09/19 02:44:57;;;;;;;8.90;5.80;;;13.10;99.90;;;;;;5087567;28;20381;-78
2021/09/19 02:47:23;;;;;;;7.30;5.70;;;13.10;99.90;;;;;;5087416;28;20429;-80
2021/09/19 02:49:48;;;;;;;6.10;5.40;;;13.20;99.90;;;;;;5089063;28;20400;-79
2021/09/19 02:52:14;;;;;;;5.93;5.43;;;13.20;99.90;;;;;;5088938;28;20473;-84
2021/09/19 02:54:40;;;;;;;7.88;5.57;;;13.20;99.90;;;;;;5088910;28;20472;-84
2021/09/19 02:57:05;;;;;;;5.83;5.33;;;13.20;99.90;;;;;;5087168;28;20416;-81
2021/09/19 02:59:31;;;;;;;7.75;5.72;;;13.20;99.90;;;;;;5088855;28;20496;-83
2021/09/19 03:01:56;;;;;;;7.97;5.63;;;13.20;99.90;;;;;;5088595;28;20376;-83
2021/09/19 03:04:22;;;;;;;7.33;5.30;;;13.20;99.90;;;;;;5092383;28;20368;-85
2021/09/19 03:06:47;;;;;;;7.50;5.68;;;13.20;99.90;;;;;;5092409;28;20368;-80
2021/09/19 03:09:13;;;;;;;8.33;5.73;;;13.20;99.90;;;;;;5092495;28;20944;-83
2021/09/19 03:11:39;;;;;;;8.40;5.60;;;13.20;99.90;;;;;;5092564;28;20901;-78
2021/09/19 03:14:04;;;;;;;7.50;5.80;;;13.20;99.90;;;;;;5092556;28;20529;-80
2021/09/19 03:16:30;;;;;;;6.43;5.72;;;13.10;99.90;;;;;;5092420;28;20403;-78
2021/09/19 03:18:56;;;;;;;9.17;6.30;;;13.10;99.90;;;;;;5092605;28;21111;-80
2021/09/19 03:21:21;;;;;;;8.90;6.43;;;13.10;99.90;;;;;;5092494;28;20372;-81
2021/09/19 03:23:47;;;;;;;8.88;6.15;;;13.20;99.90;;;;;;5091342;28;20388;-82
2021/09/19 03:26:12;;;;;;;7.97;6.10;;;13.20;99.90;;;;;;5092263;28;20523;-81
2021/09/19 03:28:38;;;;;;;6.60;5.75;;;13.20;99.90;;;;;;5092439;28;20376;-82
2021/09/19 03:31:04;;;;;;;7.65;5.57;;;13.20;99.90;;;;;;5092160;28;20436;-82
2021/09/19 03:33:29;;;;;;;9.23;6.17;;;13.30;99.90;;;;;;5092103;28;20380;-83
2021/09/19 03:35:55;;;;;;;7.25;5.80;;;13.20;99.90;;;;;;5091820;28;20379;-82
2021/09/19 03:38:20;;;;;;;8.90;6.03;;;13.10;99.90;;;;;;5091699;28;20391;-85
2021/09/19 03:40:46;;;;;;;7.72;6.00;;;13.00;99.90;;;;;;5092102;28;20369;-85
2021/09/19 03:43:12;;;;;;;8.57;6.33;;;13.10;99.90;;;;;;5091559;28;20882;-82
2021/09/19 03:45:37;;;;;;;7.93;6.00;;;13.00;99.90;;;;;;5091616;28;20376;-84
2021/09/19 03:48:05;;;;;;;8.25;5.75;;;13.00;99.90;;;;;;5091849;28;20369;-82
2021/09/19 03:50:31;;;;;;;8.07;6.07;;;13.00;99.90;;;;;;5089692;28;20369;-82
2021/09/19 03:52:57;;;;;;;7.27;5.50;;;13.10;99.90;;;;;;5091646;28;20850;-83
2021/09/19 03:55:23;;;;;;;9.13;6.30;;;13.00;99.90;;;;;;5091587;28;20397;-84
2021/09/19 03:57:48;;;;;;;7.67;6.00;;;13.10;99.90;;;;;;5091697;28;20439;-81
2021/09/19 04:00:14;;;;;;;7.45;5.78;;;13.10;99.90;;;;;;5091643;28;20375;-83
2021/09/19 04:02:40;;;;;;;9.45;6.30;;;13.20;99.90;;;;;;5091524;28;21049;-83
2021/09/19 04:05:08;;;;;;;7.45;5.72;;;13.10;99.90;;;;;;5090147;28;20395;-84
2021/09/19 04:07:33;;;;;;;6.50;5.90;;;13.10;99.90;;;;;;5091190;28;20961;-80
2021/09/19 04:09:59;;;;;;;9.85;6.32;;;13.10;99.90;;;;;;5091299;28;20488;-81
2021/09/19 04:12:24;;;;;;;8.83;6.20;;;13.10;99.90;;;;;;5091206;28;20448;-83
2021/09/19 04:14:50;;;;;;;8.98;6.13;;;13.00;99.90;;;;;;5091232;28;20780;-82
2021/09/19 04:17:15;;;;;;;7.37;6.17;;;13.00;99.90;;;;;;5089850;28;20492;-83
2021/09/19 04:19:41;;;;;;;9.23;5.95;;;13.10;99.90;;;;;;5089851;28;20877;-82
2021/09/19 04:22:07;;;;;;;7.90;6.07;;;13.10;99.90;;;;;;5091104;28;20377;-83
2021/09/19 04:24:32;;;;;;;8.10;5.73;;;13.00;99.90;;;;;;5089647;28;20733;-84
2021/09/19 04:26:58;;;;;;;6.75;6.07;;;13.10;99.90;;;;;;5090806;28;20385;-82
2021/09/19 04:29:23;;;;;;;6.70;6.00;;;13.00;99.90;;;;;;5090839;28;20742;-82
2021/09/19 04:31:49;;;;;;;9.35;6.25;;;13.10;99.90;;;;;;5091137;28;20376;-85
2021/09/19 04:34:15;;;;;;;7.78;6.20;;;13.10;99.90;;;;;;5090667;28;20380;-85
2021/09/19 04:36:40;;;;;;;7.53;6.30;;;13.10;99.90;;;;;;5089318;28;20903;-80
2021/09/19 04:39:06;;;;;;;7.93;5.97;;;13.10;99.90;;;;;;5089587;28;20391;-83
2021/09/19 04:41:32;;;;;;;6.50;5.80;;;13.00;99.90;;;;;;5091241;28;20372;-81
2021/09/19 04:43:57;;;;;;;8.23;6.27;;;13.00;99.90;;;;;;5090616;28;20388;-78
2021/09/19 04:46:23;;;;;;;7.53;6.30;;;13.10;99.90;;;;;;5090831;28;20482;-84
2021/09/19 04:48:50;;;;;;;7.30;6.10;;;13.10;99.90;;;;;;5090814;28;20716;-85
2021/09/19 04:51:17;;;;;;;11.68;6.80;;;13.10;99.90;;;;;;5090743;28;20441;-83
2021/09/19 04:53:42;;;;;;;8.23;6.60;;;13.10;99.90;;;;;;5090767;28;20471;-81
2021/09/19 04:56:08;;;;;;;6.53;5.90;;;13.00;99.90;;;;;;5089061;28;20499;-80
2021/09/19 04:58:33;;;;;;;8.83;6.90;;;13.00;99.90;;;;;;5090429;28;20372;-81
2021/09/19 05:00:59;;;;;;;7.13;6.20;;;12.90;99.90;;;;;;5090591;28;20372;-83
2021/09/19 05:03:24;;;;;;;9.60;6.77;;;13.00;99.90;;;;;;5090444;28;20376;-82
2021/09/19 05:05:50;;;;;;;10.45;6.63;;;12.90;99.90;;;;;;5090970;28;20510;-81
2021/09/19 05:08:16;;;;;;;8.83;6.50;;;12.90;99.90;;;;;;5090829;28;20376;-82
2021/09/19 05:10:42;;;;;;;9.48;6.45;;;12.90;99.90;;;;;;5088922;28;20521;-79
2021/09/19 05:13:08;;;;;;;10.00;6.45;;;12.80;99.90;;;;;;5090231;28;20455;-83
2021/09/19 05:15:33;;;;;;;7.27;6.07;;;12.80;99.90;;;;;;5089891;28;20429;-82
2021/09/19 05:17:59;;;;;;;8.00;6.20;;;12.90;99.90;;;;;;5090044;28;20909;-85
2021/09/19 05:20:24;;;;;;;7.30;6.13;;;12.90;99.90;;;;;;5090682;28;20873;-82
2021/09/19 05:22:50;;;;;;;9.95;6.22;;;12.90;99.90;;;;;;5090506;28;20369;-84
2021/09/19 05:25:16;;;;;;;8.20;6.37;;;12.90;99.90;;;;;;5089094;28;20369;-84
2021/09/19 05:27:41;;;;;;;7.67;6.30;;;12.90;99.90;;;;;;5089442;28;20406;-81
2021/09/19 05:30:07;;;;;;;9.55;6.32;;;13.00;99.90;;;;;;5088536;28;20418;-85
2021/09/19 05:32:33;;;;;;;11.52;5.97;;;13.00;99.90;;;;;;5090044;28;20399;-81
2021/09/19 05:35:00;;;;;;;7.43;6.00;;;13.00;99.90;;;;;;5089944;28;20878;-81
2021/09/19 05:37:25;;;;;;;7.90;6.53;;;13.00;99.90;;;;;;5089828;28;20400;-83
2021/09/19 05:39:51;;;;;;;9.07;6.70;;;13.00;99.90;;;;;;5088986;28;20463;-82
2021/09/19 05:42:16;;;;;;;9.00;6.67;;;13.00;99.90;;;;;;5089489;28;20392;-82
2021/09/19 05:44:42;;;;;;;8.25;6.72;;;13.00;99.90;;;;;;5089545;28;20384;-82
2021/09/19 05:47:08;;;;;;;9.20;6.97;;;13.00;99.90;;;;;;5089923;28;20369;-80
2021/09/19 05:49:33;;;;;;;8.30;6.37;;;13.00;99.90;;;;;;5089571;28;20467;-80
2021/09/19 05:51:59;;;;;;;8.73;6.43;;;13.00;99.90;;;;;;5088163;28;20376;-83
2021/09/19 05:54:24;;;;;;;8.40;6.30;;;13.10;99.90;;;;;;5088036;28;20930;-82
2021/09/19 05:56:50;;;;;;;7.22;6.32;;;13.00;99.90;;;;;;5088985;28;20396;-81
2021/09/19 05:59:15;;;;;;;8.67;6.30;;;13.10;99.90;;;;;;5089479;28;20472;-82
2021/09/19 06:01:41;;;;;;;10.02;6.60;;;13.10;99.90;;;;;;5088037;28;20399;-80
2021/09/19 06:04:06;;;;;;;9.43;6.67;;;13.10;99.90;;;;;;5087845;28;20426;-83
2021/09/19 06:06:32;;;;;;;9.43;6.60;;;13.20;99.90;;;;;;5089062;28;20881;-81
2021/09/19 06:08:58;;;;;;;8.00;6.00;;;13.20;99.90;;;;;;5087605;28;20459;-83
2021/09/19 06:11:24;;;;;;;6.97;6.07;;;13.30;99.90;;;;;;5089197;28;20372;-82
2021/09/19 06:13:49;;;;;;;9.23;6.60;;;13.20;99.90;;;;;;5089294;28;20481;-82
2021/09/19 06:16:15;;;;;;;7.30;6.50;;;13.30;99.90;;;;;;5087501;28;20456;-84
2021/09/19 06:18:41;;;;;;;8.60;6.30;;;13.30;99.90;;;;;;5089004;28;20947;-82
2021/09/19 06:21:06;;;;;;;7.30;6.20;;;13.40;99.90;;;;;;5089075;28;20380;-84
2021/09/19 06:23:32;;;;;;;7.63;5.63;;;13.40;99.90;;;;;;5089008;28;20898;-81
2021/09/19 06:25:59;;;;;;;8.27;6.50;;;13.40;99.90;;;;;;5089019;28;20726;-82
2021/09/19 06:28:24;;;;;;;7.53;6.40;;;13.50;99.90;;;;;;5087554;28;20770;-81
2021/09/19 06:30:50;;;;;;;8.43;6.38;;;13.50;99.90;;;;;;5088636;28;20373;-84
2021/09/19 06:33:16;;;;;;;8.43;6.60;;;13.40;99.90;;;;;;5088526;28;20394;-84
2021/09/19 06:35:41;;;;;;;8.82;6.20;;;13.40;99.90;;;;;;5088869;28;20380;-82
2021/09/19 06:38:08;;;;;;;6.95;5.75;;;13.40;99.90;;;;;;5088334;28;20412;-82
2021/09/19 06:40:33;;;;;;;8.85;6.00;;;13.50;99.90;;;;;;5093398;28;20865;-81
2021/09/19 06:42:59;;;;;;;7.82;6.40;;;13.60;99.90;;;;;;5091771;28;20384;-82
2021/09/19 06:45:25;;;;;;;8.40;6.70;;;13.60;99.90;;;;;;5091627;28;20387;-81
2021/09/19 06:47:50;;;;;;;8.05;5.80;;;13.50;99.90;;;;;;5092984;28;20869;-80
2021/09/19 06:50:16;;;;;;;8.00;5.83;;;13.50;99.90;;;;;;5092376;28;20372;-84
2021/09/19 06:52:42;;;;;;;7.60;5.80;;;13.50;99.90;;;;;;5091186;28;20822;-83
2021/09/19 06:55:08;;;;;;;8.25;5.88;;;13.60;99.90;;;;;;5092953;28;20379;-82
2021/09/19 06:57:34;;;;;;;6.82;5.55;;;13.70;99.90;;;;;;5092704;28;20909;-79
2021/09/19 07:00:00;;;;;;;8.68;6.15;;;13.80;99.90;;;;;;5091471;28;20383;-81
2021/09/19 07:02:25;;;;;;;7.80;5.65;;;13.80;99.90;;;;;;5090674;28;20381;-85
2021/09/19 07:04:51;;;;;;;6.53;5.78;;;13.80;99.90;;;;;;5092278;28;20360;-82
2021/09/19 07:07:18;;;;;;;7.67;5.97;;;13.90;99.90;;;;;;5092109;28;20950;-81
2021/09/19 07:09:44;;;;;;;8.35;6.22;;;14.00;99.90;;;;;;5091088;28;20372;-83
2021/09/19 07:12:10;;;;;;;6.75;5.65;;;14.00;99.90;;;;;;5092489;28;20367;-83
2021/09/19 07:14:35;;;;;;;6.40;5.70;;;14.00;99.90;;;;;;5091050;28;20893;-83
2021/09/19 07:17:01;;;;;;;7.30;5.50;;;14.00;99.90;;;;;;5092561;28;20392;-82
2021/09/19 07:19:27;;;;;;;9.07;5.95;;;14.00;99.90;;;;;;5092089;28;20425;-82
2021/09/19 07:21:52;;;;;;;8.27;5.60;;;14.10;99.90;;;;;;5092814;28;20376;-84
2021/09/19 07:24:18;;;;;;;7.03;5.20;;;14.10;99.90;;;;;;5092509;28;20467;-79
2021/09/19 07:26:43;;;;;;;8.80;5.60;;;14.10;99.90;;;;;;5092526;28;20365;-81
2021/09/19 07:29:09;;;;;;;7.87;5.37;;;14.10;99.90;;;;;;5092662;28;20396;-85
2021/09/19 07:31:35;;;;;;;6.85;5.18;;;14.20;99.90;;;;;;5092471;28;20787;-80
2021/09/19 07:34:02;;;;;;;7.40;5.18;;;14.20;99.90;;;;;;5092350;28;20866;-83
2021/09/19 07:36:33;;;;;;;6.10;5.32;;;14.30;99.90;;;;;;5090733;28;20916;-83
2021/09/19 07:39:05;;;;;;;8.10;5.60;;;14.10;99.90;;;;;;5092184;28;20918;-82
2021/09/19 07:41:31;;;;;;;8.07;5.32;;;14.00;99.90;;;;;;5092092;28;20388;-83
2021/09/19 07:43:58;;;;;;;7.47;5.40;;;14.00;99.90;;;;;;5091655;28;20892;-83
2021/09/19 07:46:24;;;;;;;7.50;5.32;;;14.20;99.90;;;;;;5091833;28;20368;-81
2021/09/19 07:48:50;;;;;;;7.25;5.13;;;14.40;99.90;;;;;;5091183;28;20368;-80
2021/09/19 07:51:16;;;;;;;7.97;5.10;;;14.40;99.90;;;;;;5089952;28;20391;-79
2021/09/19 07:53:42;;;;;;;8.90;5.50;;;14.50;99.90;;;;;;5091839;28;20373;-81
2021/09/19 07:56:08;;;;;;;10.47;5.50;;;14.40;99.90;;;;;;5091264;28;20365;-80
2021/09/19 07:58:33;;;;;;;9.97;5.10;;;14.20;99.90;;;;;;5091115;28;20731;-82
2021/09/19 08:00:59;;;;;;;9.20;5.05;;;14.30;99.90;;;;;;5091484;28;20373;-80
2021/09/19 08:03:25;;;;;;;7.27;4.87;;;14.60;99.90;;;;;;5091400;28;20368;-82
2021/09/19 08:05:50;;;;;;;7.07;4.67;;;15.00;99.90;;;;;;5091393;28;20410;-83
2021/09/19 08:08:16;;;;;;;6.47;4.23;;;15.30;99.90;;;;;;5091344;28;20878;-82
2021/09/19 08:10:42;;;;;;;7.53;4.83;;;15.50;99.90;;;;;;5091405;28;20432;-82
2021/09/19 08:13:07;;;;;;;5.60;4.50;;;15.60;99.90;;;;;;5091243;28;20491;-83
2021/09/19 08:15:33;;;;;;;6.00;4.40;;;15.80;99.90;;;;;;5091045;28;20372;-81
2021/09/19 08:17:58;;;;;;;6.25;4.55;;;16.10;99.90;;;;;;5090613;28;20422;-79
2021/09/19 08:20:24;;;;;;;8.63;4.97;;;15.90;99.90;;;;;;5089350;28;20391;-84
2021/09/19 08:22:50;;;;;;;7.45;4.75;;;15.60;99.90;;;;;;5087226;28;20383;-83
2021/09/19 08:25:16;;;;;;;5.35;4.80;;;15.50;99.90;;;;;;5086068;28;20400;-81
2021/09/19 08:27:42;;;;;;;6.10;4.90;;;15.50;99.90;;;;;;5088894;28;20749;-83
2021/09/19 08:30:11;;;;;;;6.15;4.60;;;15.60;99.90;;;;;;5089239;28;20387;-82
2021/09/19 08:32:37;;;;;;;6.53;4.80;;;15.80;99.90;;;;;;5089019;28;20476;-82
2021/09/19 08:35:05;;;;;;;6.38;4.50;;;15.80;99.90;;;;;;5088841;28;20479;-82
2021/09/19 08:37:30;;;;;;;4.72;4.20;;;15.70;99.90;;;;;;5091104;28;20392;-80
2021/09/19 08:39:56;;;;;;;5.63;4.30;;;15.90;99.90;;;;;;5091016;28;20471;-80
2021/09/19 08:42:21;;;;;;;4.90;4.20;;;16.00;99.90;;;;;;5089550;28;20384;-84
2021/09/19 08:44:47;;;;;;;5.70;4.53;;;16.10;99.90;;;;;;5088030;28;20385;-80
2021/09/19 08:47:13;;;;;;;5.70;4.50;;;16.20;99.90;;;;;;5097367;28;20386;-82
2021/09/19 08:49:39;;;;;;;6.35;4.85;;;16.10;99.90;;;;;;5109128;28;20390;-83
2021/09/19 08:52:05;;;;;;;7.15;4.20;;;16.10;99.90;;;;;;5096430;28;20901;-82
2021/09/19 08:54:31;;;;;;;6.18;4.15;;;16.10;99.90;;;;;;5090013;28;20376;-83
2021/09/19 08:56:56;;;;;;;7.33;4.73;;;16.20;99.90;;;;;;5090171;28;20393;-83
2021/09/19 08:59:22;;;;;;;6.57;4.57;;;16.10;99.90;;;;;;5090191;28;20376;-83
2021/09/19 09:02:02;;;;;;;5.93;4.38;;;16.20;99.90;;;;;;5089279;28;20415;-81
2021/09/19 09:04:28;;;;;;;5.97;4.32;;;16.40;99.90;;;;;;5105824;28;20374;-81
2021/09/19 09:06:55;;;;;;;7.47;4.20;;;16.40;99.90;;;;;;5096466;28;20832;-86
2021/09/19 09:09:22;;;;;;;4.53;4.00;;;16.40;99.90;;;;;;5090151;28;20383;-80
2021/09/19 09:12:07;;;;;;;4.50;4.03;;;16.30;99.90;;;;;;5089873;28;20379;-79
2021/09/19 09:14:47;;;;;;;7.43;4.50;;;16.40;99.90;;;;;;5089942;28;20455;-85
2021/09/19 09:17:18;;;;;;;7.25;4.15;;;16.60;99.90;;;;;;5092475;28;20416;-82
2021/09/19 09:19:46;;;;;;;7.43;4.40;;;16.70;99.90;;;;;;5097938;28;20376;-81
2021/09/19 09:22:13;;;;;;;5.70;3.97;;;16.90;99.90;;;;;;5097297;28;20882;-82
2021/09/19 09:24:43;;;;;;;6.32;4.13;;;16.90;99.90;;;;;;5098184;28;20457;-83
2021/09/19 09:27:24;;;;;;;5.63;4.15;;;17.00;99.90;;;;;;5099240;28;20375;-83
2021/09/19 09:30:08;;;;;;;6.72;3.95;;;17.20;99.90;;;;;;5098331;28;20419;-80
2021/09/19 09:32:52;;;;;;;6.57;4.00;;;17.40;99.90;;;;;;5094921;28;20503;-83
2021/09/19 09:35:19;;;;;;;8.57;4.50;;;17.50;99.90;;;;;;5098756;28;20519;-82
2021/09/19 09:37:45;;;;;;;8.07;4.10;;;17.60;99.90;;;;;;5092575;28;20400;-82
2021/09/19 09:40:15;;;;;;;6.32;4.40;;;17.70;99.90;;;;;;5093360;28;20866;-82
2021/09/19 09:43:09;;;;;;;5.30;4.05;;;17.40;99.90;;;;;;5101460;28;20934;-81
2021/09/19 09:45:40;;;;;;;6.50;3.90;;;17.30;99.90;;;;;;5095887;28;20402;-79
2021/09/19 09:48:24;;;;;;;6.13;3.67;;;17.20;99.90;;;;;;5105583;28;20367;-82
2021/09/19 09:50:54;;;;;;;5.32;4.03;;;17.20;99.90;;;;;;5094982;28;20398;-85
2021/09/19 09:53:22;;;;;;;6.10;4.00;;;17.00;99.90;;;;;;5099164;28;20489;-84
2021/09/19 09:55:49;;;;;;;4.68;3.80;;;16.70;99.90;;;;;;5096364;28;20387;-82
2021/09/19 09:58:20;;;;;;;7.97;4.70;;;16.70;99.90;;;;;;5095735;28;20459;-80
2021/09/19 10:00:47;;;;;;;5.75;4.20;;;16.70;99.90;;;;;;5100181;28;20374;-81
2021/09/19 10:03:14;;;;;;;5.35;4.22;;;16.80;99.90;;;;;;5097172;28;20387;-81
2021/09/19 10:05:41;;;;;;;5.53;4.10;;;16.80;99.90;;;;;;5099081;28;20401;-80
2021/09/19 10:08:07;;;;;;;5.80;4.55;;;16.80;99.90;;;;;;5099855;28;20376;-82
2021/09/19 10:10:44;;;;;;;5.18;4.07;;;16.80;99.90;;;;;;5097767;28;20507;-81
2021/09/19 10:13:12;;;;;;;6.70;4.30;;;16.70;99.90;;;;;;5092768;28;20390;-80
2021/09/19 10:15:38;;;;;;;5.60;3.70;;;16.50;99.90;;;;;;5096430;28;20369;-85
2021/09/19 10:18:04;;;;;;;6.45;4.25;;;16.70;99.90;;;;;;5099537;28;20476;-82
2021/09/19 10:20:44;;;;;;;5.18;4.50;;;16.80;99.90;;;;;;5100596;28;20365;-82
2021/09/19 10:23:18;;;;;;;6.00;4.15;;;17.10;99.90;;;;;;5098817;28;20461;-84
2021/09/19 10:26:20;;;;;;;5.15;3.70;;;17.50;99.90;;;;;;5094012;28;20443;-80
2021/09/19 10:28:48;;;;;;;6.03;3.80;;;17.70;99.90;;;;;;5092579;28;20388;-82
2021/09/19 10:31:20;;;;;;;5.60;3.80;;;17.60;99.90;;;;;;5095552;28;20384;-83
2021/09/19 10:34:04;;;;;;;5.80;4.07;;;17.60;99.90;;;;;;5097961;28;20740;-85
2021/09/19 10:36:49;;;;;;;4.35;3.90;;;17.60;99.90;;;;;;5094013;28;20400;-84
2021/09/19 10:39:23;;;;;;;4.93;3.67;;;17.50;99.90;;;;;;5087502;28;20372;-83
2021/09/19 10:42:13;;;;;;;5.45;4.28;;;17.60;99.90;;;;;;5086590;28;20388;-81
2021/09/19 10:44:44;;;;;;;4.93;3.73;;;17.60;99.90;;;;;;5067716;28;20477;-84
2021/09/19 10:47:26;;;;;;;4.28;3.55;;;17.70;99.90;;;;;;5067045;28;20431;-79
2021/09/19 10:50:21;;;;;;;4.25;3.38;;;17.80;99.90;;;;;;5086325;28;20376;-79
2021/09/19 10:52:50;;;;;;;3.80;3.40;;;17.80;99.90;;;;;;5087740;28;20377;-82
2021/09/19 10:55:25;;;;;;;4.28;3.20;;;17.70;99.90;;;;;;5088243;28;20384;-82
2021/09/19 10:57:58;;;;;;;4.50;4.10;;;17.60;99.90;;;;;;5088933;28;20451;-81
2021/09/19 11:00:25;;;;;;;5.40;3.78;;;17.70;99.90;;;;;;5086803;28;20831;-82
2021/09/19 11:03:23;;;;;;;4.20;3.33;;;17.80;99.90;;;;;;5085712;28;20457;-81
2021/09/19 11:05:51;;;;;;;4.25;3.20;;;17.60;99.90;;;;;;5073625;28;20526;-85
2021/09/19 11:08:19;;;;;;;5.93;3.25;;;17.20;99.90;;;;;;5069268;28;20374;-82
2021/09/19 11:10:45;;;;;;;3.45;3.15;;;17.20;99.90;;;;;;5068657;28;20382;-79
2021/09/19 11:13:25;;;;;;;8.97;3.60;;;17.00;99.90;;;;;;5087829;28;20388;-84
2021/09/19 11:16:03;;;;;;;4.28;2.97;;;17.00;99.90;;;;;;5085495;28;20429;-80
2021/09/19 11:18:41;;;;;;;10.32;3.58;;;17.10;99.90;;;;;;5086850;28;20408;-80
2021/09/19 11:21:10;;;;;;;4.45;3.00;;;17.00;99.90;;;;;;5085231;28;20430;-84
2021/09/19 11:23:44;;;;;;;4.47;3.10;;;16.90;99.90;;;;;;5088276;28;20388;-83
2021/09/19 11:26:11;;;;;;;4.00;2.90;;;16.90;99.90;;;;;;5088687;28;20552;-82
2021/09/19 11:28:37;;;;;;;5.63;3.00;;;16.90;99.90;;;;;;5090079;28;20422;-86
2021/09/19 11:31:04;;;;;;;3.05;2.72;;;16.90;99.90;;;;;;5090793;28;20889;-82
2021/09/19 11:33:33;;;;;;;4.80;3.20;;;17.10;99.90;;;;;;5090883;28;20726;-84
2021/09/19 11:36:09;;;;;;;4.55;3.05;;;17.10;99.90;;;;;;5090721;28;20438;-79
2021/09/19 11:38:42;;;;;;;4.30;2.60;;;17.40;99.90;;;;;;5092077;28;20408;-84
2021/09/19 11:41:08;;;;;;;2.95;2.65;;;17.60;99.90;;;;;;5092390;28;20360;-82
2021/09/19 11:43:36;;;;;;;3.67;2.93;;;17.90;99.90;;;;;;5092055;28;20462;-83
2021/09/19 11:46:06;;;;;;;3.97;2.97;;;18.20;99.90;;;;;;5081854;28;20401;-81
2021/09/19 11:48:32;;;;;;;3.27;2.53;;;18.00;99.90;;;;;;5101560;28;20389;-81
2021/09/19 11:50:59;;;;;;;7.07;3.20;;;17.90;99.90;;;;;;5100095;28;20379;-82
2021/09/19 11:53:26;;;;;;;4.90;3.28;;;17.80;99.90;;;;;;5093295;28;20380;-80
2021/09/19 11:55:59;;;;;;;4.03;3.08;;;17.70;99.90;;;;;;5097207;28;20388;-83
2021/09/19 11:58:25;;;;;;;5.63;3.20;;;17.40;99.90;;;;;;5097828;28;20879;-82
2021/09/19 12:00:56;;;;;;;4.10;3.20;;;17.30;99.90;;;;;;5097818;28;21026;-79
2021/09/19 12:03:24;;;;;;;4.97;3.13;;;17.20;99.90;;;;;;5100381;28;20392;-79
2021/09/19 12:05:51;;;;;;;8.13;3.40;;;17.20;99.90;;;;;;5099744;28;20406;-81
2021/09/19 12:08:19;;;;;;;4.60;2.80;;;17.20;99.90;;;;;;5101213;28;20394;-81
2021/09/19 12:10:48;;;;;;;3.65;2.97;;;16.80;99.90;;;;;;5099914;28;20481;-83
2021/09/19 12:13:21;;;;;;;4.80;3.00;;;16.60;99.90;;;;;;5100910;28;20395;-82
2021/09/19 12:16:19;;;;;;;5.22;3.60;;;16.50;99.90;;;;;;5099920;28;20414;-85
2021/09/19 12:18:50;;;;;;;4.95;3.20;;;16.40;99.90;;;;;;5098659;28;20400;-86
2021/09/19 12:21:21;;;;;;;5.38;2.97;;;16.30;99.90;;;;;;5100309;28;20388;-82
2021/09/19 12:23:50;;;;;;;5.38;2.95;;;16.30;99.90;;;;;;5103091;28;20434;-85
2021/09/19 12:26:21;;;;;;;5.88;3.33;;;16.20;99.90;;;;;;5100941;28;20808;-85
2021/09/19 12:28:53;;;;;;;4.32;3.08;;;16.20;99.90;;;;;;5103544;28;20382;-83
2021/09/19 12:31:43;;;;;;;3.78;3.00;;;16.30;99.90;;;;;;5103270;28;20371;-82
2021/09/19 12:34:14;;;;;;;4.38;3.00;;;16.60;99.90;;;;;;5098679;28;20497;-82
2021/09/19 12:36:46;;;;;;;4.30;3.30;;;16.70;99.90;;;;;;5094943;28;20396;-83
2021/09/19 12:39:21;;;;;;;4.63;2.90;;;16.90;99.90;;;;;;5100663;28;20884;-79
2021/09/19 12:41:53;;;;;;;3.90;3.05;;;17.20;99.90;;;;;;5079305;28;20383;-84
2021/09/19 12:44:27;;;;;;;3.53;2.75;;;17.40;99.90;;;;;;5094820;28;20430;-83
2021/09/19 12:46:58;;;;;;;4.18;2.63;;;17.60;99.90;;;;;;5100977;28;20747;-84
2021/09/19 12:49:29;;;;;;;5.00;3.03;;;17.70;99.90;;;;;;5096531;28;20443;-85